createdAt,value
2018-12-05T00:01:16.986Z,160.17
2018-12-05T00:03:45.523Z,164.37
2018-12-05T00:06:14.715Z,158.87
2018-12-05T00:08:45.334Z,162.37
2018-12-05T00:11:14.076Z,151.13
2018-12-05T00:13:42.921Z,172.57
2018-12-05T00:16:12.493Z,156.63
2018-12-05T00:18:41.321Z,148.73
2018-12-05T00:21:09.828Z,158.77
2018-12-05T00:23:38.450Z,159.63
2018-12-05T00:26:07.040Z,167.47
2018-12-05T00:28:35.715Z,165.53
2018-12-05T00:31:04.267Z,159.33
2018-12-05T00:33:32.992Z,167.83
2018-12-05T00:36:01.500Z,172.17
2018-12-05T00:38:31.105Z,169.50
2018-12-05T00:41:00.378Z,172.70
2018-12-05T00:43:30.038Z,166.30
2018-12-05T00:45:58.596Z,167.37
2018-12-05T00:48:27.140Z,168.67
2018-12-05T00:50:55.795Z,164.57
2018-12-05T00:53:24.414Z,164.20
2018-12-05T00:55:52.947Z,171.63
2018-12-05T00:58:21.507Z,163.13
2018-12-05T01:00:50.303Z,159.97
2018-12-05T01:03:18.835Z,161.67
2018-12-05T01:05:47.310Z,160.33
2018-12-05T01:08:15.896Z,163.67
2018-12-05T01:10:44.444Z,165.90
2018-12-05T01:13:12.963Z,165.67
2018-12-05T01:15:41.874Z,167.00
2018-12-05T01:18:10.391Z,161.00
2018-12-05T01:20:38.911Z,149.00
2018-12-05T01:23:07.511Z,150.23
2018-12-05T01:25:36.111Z,153.37
2018-12-05T01:28:04.839Z,125.17
2018-12-05T01:30:33.400Z,122.20
2018-12-05T01:33:01.966Z,114.33
2018-12-05T01:35:30.868Z,114.07
2018-12-05T01:37:59.470Z,104.97
2018-12-05T01:40:28.021Z,93.67
2018-12-05T01:42:56.557Z,94.97
2018-12-05T01:45:25.122Z,89.67
2018-12-05T01:47:53.640Z,87.53
2018-12-05T01:50:22.215Z,79.87
2018-12-05T01:52:51.228Z,86.63
2018-12-05T01:55:19.779Z,88.37
2018-12-05T01:57:48.295Z,86.60
2018-12-05T02:00:17.276Z,85.03
2018-12-05T02:02:45.824Z,82.47
2018-12-05T02:05:14.596Z,81.50
2018-12-05T02:07:43.125Z,84.67
2018-12-05T02:10:11.774Z,85.47
2018-12-05T02:12:40.274Z,81.23
2018-12-05T02:15:08.918Z,81.57
2018-12-05T02:17:37.934Z,80.10
2018-12-05T02:20:06.787Z,81.87
2018-12-05T02:22:35.667Z,87.77
2018-12-05T02:25:04.713Z,95.27
2018-12-05T02:27:33.322Z,97.97
2018-12-05T02:30:01.988Z,102.40
2018-12-05T02:32:30.526Z,102.73
2018-12-05T02:34:59.555Z,110.67
2018-12-05T02:37:28.297Z,102.23
2018-12-05T02:39:56.884Z,102.60
2018-12-05T02:42:25.420Z,101.10
2018-12-05T02:44:54.031Z,106.07
2018-12-05T02:47:22.524Z,112.53
2018-12-05T02:49:51.072Z,114.13
2018-12-05T02:52:19.671Z,117.37
2018-12-05T02:54:48.431Z,120.13
2018-12-05T02:57:16.947Z,113.93
2018-12-05T02:59:45.482Z,114.83
2018-12-05T03:02:13.976Z,119.40
2018-12-05T03:04:42.566Z,113.63
2018-12-05T03:07:11.194Z,105.97
2018-12-05T03:09:39.720Z,106.50
2018-12-05T03:12:08.244Z,101.50
2018-12-05T03:14:36.828Z,91.63
2018-12-05T03:17:05.404Z,88.10
2018-12-05T03:19:34.318Z,90.63
2018-12-05T03:22:02.962Z,82.17
2018-12-05T03:24:31.524Z,82.90
2018-12-05T03:27:00.060Z,79.73
2018-12-05T03:29:28.698Z,83.40
2018-12-05T03:31:57.245Z,78.30
2018-12-05T03:34:25.826Z,79.67
2018-12-05T03:36:54.359Z,77.13
2018-12-05T03:39:23.480Z,72.53
2018-12-05T03:41:52.023Z,77.27
2018-12-05T03:44:20.893Z,74.23
2018-12-05T03:46:49.393Z,68.27
2018-12-05T03:49:17.867Z,60.07
2018-12-05T03:51:46.375Z,58.30
2018-12-05T03:54:14.896Z,59.40
2018-12-05T03:56:43.627Z,46.97
2018-12-05T03:59:12.274Z,49.70
2018-12-05T04:01:40.764Z,46.57
2018-12-05T04:04:09.298Z,43.90
2018-12-05T04:06:37.833Z,47.37
2018-12-05T04:09:07.432Z,51.57
2018-12-05T04:11:36.000Z,42.43
2018-12-05T04:14:04.746Z,48.60
2018-12-05T04:16:33.606Z,39.30
2018-12-05T04:19:02.157Z,44.30
2018-12-05T04:21:31.588Z,42.30
2018-12-05T04:24:00.069Z,44.50
2018-12-05T04:26:28.546Z,39.03
2018-12-05T04:28:58.073Z,40.47
2018-12-05T04:31:26.577Z,42.27
2018-12-05T04:33:55.154Z,41.80
2018-12-05T04:36:23.854Z,38.77
2018-12-05T04:38:53.036Z,41.20
2018-12-05T04:41:21.741Z,37.93
2018-12-05T04:43:50.321Z,42.07
2018-12-05T04:46:19.573Z,38.67
2018-12-05T04:48:48.727Z,42.77
2018-12-05T04:51:17.262Z,42.13
2018-12-05T04:53:46.526Z,41.73
2018-12-05T04:56:15.852Z,43.73
2018-12-05T04:58:44.610Z,44.50
2018-12-05T05:01:13.751Z,40.90
2018-12-05T05:03:42.302Z,40.97
2018-12-05T05:06:11.129Z,44.37
2018-12-05T05:08:40.466Z,45.27
2018-12-05T05:11:09.079Z,44.03
2018-12-05T05:13:37.631Z,45.07
2018-12-05T05:16:06.145Z,44.77
2018-12-05T05:18:34.656Z,47.57
2018-12-05T05:21:03.953Z,45.90
2018-12-05T05:23:32.931Z,46.90
2018-12-05T05:26:01.447Z,47.07
2018-12-05T05:28:30.323Z,47.03
2018-12-05T05:31:00.032Z,52.60
2018-12-05T05:33:28.516Z,44.87
2018-12-05T05:35:58.056Z,43.40
2018-12-05T05:38:26.562Z,43.93
2018-12-05T05:40:55.101Z,45.07
2018-12-05T05:43:24.756Z,47.47
2018-12-05T05:45:54.029Z,47.73
2018-12-05T05:48:22.572Z,47.77
2018-12-05T05:50:51.087Z,50.50
2018-12-05T05:53:19.527Z,54.20
2018-12-05T05:55:48.014Z,59.90
2018-12-05T05:58:16.706Z,66.37
2018-12-05T06:00:45.459Z,75.60
2018-12-05T06:03:13.936Z,78.73
2018-12-05T06:05:42.544Z,82.93
2018-12-05T06:08:11.017Z,73.33
2018-12-05T06:10:39.565Z,74.57
2018-12-05T06:13:08.202Z,51.63
2018-12-05T06:15:36.748Z,32.53
2018-12-05T06:18:05.329Z,29.37
2018-12-05T06:20:33.554Z,18.47
2018-12-05T06:23:02.140Z,17.53
2018-12-05T06:25:31.060Z,18.23
2018-12-05T06:27:59.944Z,17.90
2018-12-05T06:30:28.466Z,17.90
2018-12-05T06:32:57.044Z,17.90
2018-12-05T06:35:25.636Z,15.47
2018-12-05T06:37:54.261Z,22.30
2018-12-05T06:40:22.827Z,20.17
2018-12-05T06:42:51.345Z,18.40
2018-12-05T06:45:19.992Z,18.37
2018-12-05T06:47:48.609Z,17.37
2018-12-05T06:50:17.263Z,14.43
2018-12-05T06:52:45.808Z,16.27
2018-12-05T06:55:14.484Z,17.97
2018-12-05T06:57:43.660Z,20.07
2018-12-05T07:00:13.100Z,14.77
2018-12-05T07:02:41.816Z,13.90
2018-12-05T07:05:10.770Z,16.97
2018-12-05T07:07:39.278Z,13.60
2018-12-05T07:10:07.923Z,13.77
2018-12-05T07:12:36.488Z,13.73
2018-12-05T07:15:05.356Z,11.73
2018-12-05T07:17:33.864Z,16.30
2018-12-05T07:20:02.414Z,14.07
2018-12-05T07:22:30.887Z,13.67
2018-12-05T07:24:59.382Z,11.97
2018-12-05T07:27:30.336Z,14.73
2018-12-05T07:29:59.625Z,13.33
2018-12-05T07:32:28.097Z,11.97
2018-12-05T07:34:56.623Z,12.80
2018-12-05T07:37:25.194Z,14.87
2018-12-05T07:39:53.967Z,10.97
2018-12-05T07:42:23.182Z,8.67
2018-12-05T07:44:51.664Z,9.27
2018-12-05T07:47:21.254Z,13.53
2018-12-05T07:49:49.959Z,13.20
2018-12-05T07:52:20.301Z,11.23
2018-12-05T07:54:50.136Z,10.43
2018-12-05T07:57:18.662Z,8.23
2018-12-05T07:59:47.194Z,14.30
2018-12-05T08:02:15.764Z,14.67
2018-12-05T08:04:44.690Z,11.67
2018-12-05T08:07:13.261Z,14.87
2018-12-05T08:09:41.759Z,11.67
2018-12-05T08:12:10.332Z,10.80
2018-12-05T08:14:39.704Z,13.53
2018-12-05T08:17:08.244Z,11.53
2018-12-05T08:19:36.767Z,10.77
2018-12-05T08:22:05.304Z,19.97
2018-12-05T08:24:33.833Z,13.70
2018-12-05T08:27:02.454Z,14.17
2018-12-05T08:29:33.257Z,14.03
2018-12-05T08:32:01.829Z,12.77
2018-12-05T08:34:30.360Z,13.55
2018-12-05T08:36:58.993Z,11.60
2018-12-05T08:39:27.612Z,9.10
2018-12-05T08:41:56.400Z,11.00
2018-12-05T08:44:24.947Z,13.83
2018-12-05T08:46:54.460Z,9.20
2018-12-05T08:49:23.679Z,11.30
2018-12-05T08:51:52.266Z,15.40
2018-12-05T08:54:21.486Z,16.60
2018-12-05T08:56:50.593Z,10.47
2018-12-05T08:59:19.761Z,18.00
2018-12-05T09:01:48.291Z,12.00
2018-12-05T09:04:16.985Z,14.23
2018-12-05T09:06:47.032Z,12.40
2018-12-05T09:09:15.514Z,8.30
2018-12-05T09:11:44.315Z,11.33
2018-12-05T09:14:12.817Z,11.10
2018-12-05T09:16:41.427Z,9.50
2018-12-05T09:19:10.172Z,11.73
2018-12-05T09:21:38.702Z,15.43
2018-12-05T09:24:07.173Z,17.03
2018-12-05T09:26:36.480Z,14.17
2018-12-05T09:29:06.107Z,9.30
2018-12-05T09:31:34.816Z,9.33
2018-12-05T09:34:03.434Z,6.97
2018-12-05T09:36:31.939Z,6.13
2018-12-05T09:39:00.414Z,10.13
2018-12-05T09:41:28.959Z,10.03
2018-12-05T09:43:57.669Z,8.00
2018-12-05T09:46:26.201Z,11.13
2018-12-05T09:48:54.940Z,15.43
2018-12-05T09:51:23.787Z,10.10
2018-12-05T09:53:52.383Z,13.80
2018-12-05T09:56:21.427Z,11.80
2018-12-05T09:58:49.942Z,11.77
2018-12-05T10:01:18.577Z,11.77
2018-12-05T10:03:47.213Z,9.63
2018-12-05T10:06:15.785Z,16.47
2018-12-05T10:08:44.630Z,12.13
2018-12-05T10:11:13.173Z,8.10
2018-12-05T10:13:41.658Z,10.60
2018-12-05T10:16:10.195Z,7.53
2018-12-05T10:18:39.040Z,7.03
2018-12-05T10:21:07.649Z,10.93
2018-12-05T10:23:36.805Z,6.87
2018-12-05T10:26:05.372Z,10.90
2018-12-05T10:28:34.086Z,13.60
2018-12-05T10:31:02.557Z,12.20
2018-12-05T10:33:31.344Z,10.50
2018-12-05T10:35:59.859Z,10.10
2018-12-05T10:38:28.473Z,16.67
2018-12-05T10:40:57.436Z,8.40
2018-12-05T10:43:26.023Z,10.40
2018-12-05T10:45:54.596Z,9.87
2018-12-05T10:48:23.125Z,9.03
2018-12-05T10:50:51.739Z,11.70
2018-12-05T10:53:20.838Z,7.67
2018-12-05T10:55:49.488Z,14.47
2018-12-05T10:58:18.089Z,10.10
2018-12-05T11:00:52.088Z,15.83
2018-12-05T11:03:25.843Z,12.43
2018-12-05T11:05:59.819Z,19.33
2018-12-05T11:08:33.884Z,12.87
2018-12-05T11:13:14.384Z,9.73
2018-12-05T11:15:48.313Z,13.77
2018-12-05T11:18:22.228Z,7.50
2018-12-05T11:20:55.826Z,11.33
2018-12-05T11:23:29.650Z,9.87
2018-12-05T11:26:00.230Z,11.67
2018-12-05T11:28:29.067Z,14.73
2018-12-05T11:30:57.988Z,9.97
2018-12-05T11:33:26.647Z,9.23
2018-12-05T11:35:55.173Z,13.97
2018-12-05T11:38:23.842Z,9.40
2018-12-05T11:40:52.408Z,12.83
2018-12-05T11:43:21.087Z,7.43
2018-12-05T11:45:49.562Z,12.80
2018-12-05T11:48:18.091Z,12.57
2018-12-05T11:50:46.576Z,9.87
2018-12-05T11:53:15.204Z,8.63
2018-12-05T11:55:44.452Z,9.30
2018-12-05T11:58:12.981Z,9.43
2018-12-05T12:00:42.083Z,8.87
2018-12-05T12:03:11.206Z,9.33
2018-12-05T12:05:39.861Z,11.57
2018-12-05T12:08:08.449Z,9.23
2018-12-05T12:10:40.235Z,10.93
2018-12-05T12:13:09.891Z,8.80
2018-12-05T12:15:38.550Z,11.13
2018-12-05T12:18:07.302Z,10.60
2018-12-05T12:20:36.295Z,12.27
2018-12-05T12:23:04.818Z,9.97
2018-12-05T12:25:33.311Z,9.70
2018-12-05T12:28:02.490Z,6.40
2018-12-05T12:30:31.243Z,7.72
2018-12-05T12:32:59.743Z,9.40
2018-12-05T12:35:28.366Z,10.83
2018-12-05T12:37:57.496Z,8.67
2018-12-05T12:40:26.020Z,8.13
2018-12-05T12:42:54.704Z,8.30
2018-12-05T12:45:24.033Z,8.20
2018-12-05T12:47:52.527Z,13.03
2018-12-05T12:50:21.052Z,9.33
2018-12-05T12:52:49.752Z,10.40
2018-12-05T12:55:18.336Z,10.80
2018-12-05T12:57:48.331Z,9.03
2018-12-05T13:00:16.892Z,8.43
2018-12-05T13:02:45.421Z,13.07
2018-12-05T13:05:14.508Z,8.60
2018-12-05T13:07:44.036Z,9.67
2018-12-05T13:10:12.851Z,8.43
2018-12-05T13:12:41.371Z,9.17
2018-12-05T13:15:09.957Z,9.50
2018-12-05T13:17:38.415Z,11.87
2018-12-05T13:20:07.931Z,7.70
2018-12-05T13:22:37.113Z,10.77
2018-12-05T13:25:06.112Z,13.00
2018-12-05T13:27:35.678Z,12.17
2018-12-05T13:30:04.310Z,15.17
2018-12-05T13:32:32.848Z,17.10
2018-12-05T13:35:02.648Z,9.10
2018-12-05T13:37:32.922Z,9.30
2018-12-05T13:40:01.507Z,12.90
2018-12-05T13:42:30.194Z,8.47
2018-12-05T13:44:58.771Z,16.07
2018-12-05T13:47:27.463Z,13.67
2018-12-05T13:49:55.998Z,8.83
2018-12-05T13:52:24.624Z,7.30
2018-12-05T13:54:53.849Z,11.73
2018-12-05T13:57:23.116Z,10.43
2018-12-05T13:59:51.947Z,12.23
2018-12-05T14:02:21.375Z,7.77
2018-12-05T14:04:50.849Z,9.20
2018-12-05T14:07:19.480Z,11.73
2018-12-05T14:09:48.190Z,13.53
2018-12-05T14:12:22.226Z,12.17
2018-12-05T14:14:51.413Z,12.17
2018-12-05T14:17:20.840Z,15.70
2018-12-05T14:19:49.432Z,13.97
2018-12-05T14:22:18.379Z,18.67
2018-12-05T14:24:46.992Z,20.43
2018-12-05T14:27:16.684Z,20.93
2018-12-05T14:29:45.204Z,18.97
2018-12-05T14:32:13.736Z,19.07
2018-12-05T14:34:42.338Z,17.87
2018-12-05T14:37:10.848Z,19.33
2018-12-05T14:39:39.393Z,19.57
2018-12-05T14:42:07.958Z,20.43
2018-12-05T14:44:36.537Z,17.43
2018-12-05T14:47:05.245Z,21.93
2018-12-05T14:49:33.770Z,11.43
2018-12-05T14:52:02.266Z,19.67
2018-12-05T14:54:30.803Z,17.03
2018-12-05T14:56:59.431Z,15.47
2018-12-05T14:59:28.019Z,13.40
2018-12-05T15:01:56.858Z,11.63
2018-12-05T15:04:25.449Z,13.23
2018-12-05T15:06:53.974Z,14.07
2018-12-05T15:09:23.153Z,10.73
2018-12-05T15:11:52.635Z,11.63
2018-12-05T15:14:22.299Z,12.83
2018-12-05T15:16:51.289Z,7.77
2018-12-05T15:19:19.860Z,7.70
2018-12-05T15:21:48.452Z,10.20
2018-12-05T15:24:17.032Z,10.27
2018-12-05T15:26:45.886Z,10.03
2018-12-05T15:29:14.368Z,11.23
2018-12-05T15:31:42.916Z,13.07
2018-12-05T15:34:11.452Z,14.27
2018-12-05T15:36:40.276Z,14.73
2018-12-05T15:39:09.021Z,12.87
2018-12-05T15:41:37.518Z,12.40
2018-12-05T15:44:06.169Z,14.78
2018-12-05T15:46:34.709Z,18.83
2018-12-05T15:49:03.976Z,19.53
2018-12-05T15:51:33.368Z,14.53
2018-12-05T15:54:01.877Z,16.97
2018-12-05T15:56:30.418Z,16.67
2018-12-05T15:58:58.969Z,15.87
2018-12-05T16:01:27.790Z,15.83
2018-12-05T16:03:56.548Z,14.73
2018-12-05T16:06:25.054Z,11.70
2018-12-05T16:08:53.558Z,12.03
2018-12-05T16:11:22.271Z,13.30
2018-12-05T16:13:50.917Z,11.03
2018-12-05T16:16:19.387Z,10.43
2018-12-05T16:18:47.909Z,12.47
2018-12-05T16:21:16.398Z,9.33
2018-12-05T16:23:44.942Z,10.40
2018-12-05T16:26:13.707Z,9.17
2018-12-05T16:28:42.232Z,9.07
2018-12-05T16:31:10.813Z,14.33
2018-12-05T16:33:39.591Z,9.17
2018-12-05T16:36:11.287Z,13.00
2018-12-05T16:38:38.767Z,12.13
2018-12-05T16:41:07.387Z,9.97
2018-12-05T16:43:35.928Z,12.13
2018-12-05T16:46:04.485Z,12.43
2018-12-05T16:48:33.141Z,10.63
2018-12-05T16:51:02.165Z,13.73
2018-12-05T16:53:30.704Z,9.33
2018-12-05T16:55:59.239Z,11.77
2018-12-05T16:58:27.773Z,12.20
2018-12-05T17:00:59.621Z,8.77
2018-12-05T17:03:28.234Z,8.30
2018-12-05T17:05:56.832Z,9.67
2018-12-05T17:08:25.251Z,9.13
2018-12-05T17:10:54.101Z,12.00
2018-12-05T17:13:22.649Z,9.93
2018-12-05T17:15:51.192Z,15.63
2018-12-05T17:18:19.879Z,11.43
2018-12-05T17:20:48.313Z,11.47
2018-12-05T17:23:17.172Z,13.30
2018-12-05T17:25:45.742Z,11.27
2018-12-05T17:28:14.334Z,14.33
2018-12-05T17:30:42.963Z,11.93
2018-12-05T17:33:11.532Z,11.53
2018-12-05T17:35:40.486Z,10.60
2018-12-05T17:38:08.988Z,18.23
2018-12-05T17:40:37.672Z,14.87
2018-12-05T17:43:07.214Z,11.77
2018-12-05T17:45:35.732Z,14.30
2018-12-05T17:48:04.288Z,10.13
2018-12-05T17:50:34.689Z,13.80
2018-12-05T17:53:03.964Z,11.10
2018-12-05T17:55:32.483Z,11.97
2018-12-05T17:58:01.001Z,12.17
2018-12-05T18:00:30.109Z,9.73
2018-12-05T18:02:59.471Z,10.57
2018-12-05T18:05:28.411Z,14.67
2018-12-05T18:07:57.629Z,10.00
2018-12-05T18:10:26.827Z,11.83
2018-12-05T18:12:55.353Z,11.60
2018-12-05T18:15:24.065Z,9.90
2018-12-05T18:17:52.634Z,11.33
2018-12-05T18:20:21.154Z,13.23
2018-12-05T18:22:49.656Z,11.27
2018-12-05T18:25:18.141Z,15.00
2018-12-05T18:27:46.693Z,12.00
2018-12-05T18:30:15.472Z,13.07
2018-12-05T18:32:44.420Z,10.97
2018-12-05T18:35:13.810Z,12.00
2018-12-05T18:37:42.332Z,11.13
2018-12-05T18:40:10.912Z,13.93
2018-12-05T18:42:39.535Z,13.27
2018-12-05T18:45:08.930Z,11.23
2018-12-05T18:47:37.463Z,12.10
2018-12-05T18:50:08.033Z,13.07
2018-12-05T18:52:36.654Z,12.00
2018-12-05T18:55:06.343Z,14.10
2018-12-05T18:57:34.938Z,15.97
2018-12-05T19:00:03.964Z,14.13
2018-12-05T19:02:32.634Z,13.70
2018-12-05T19:05:01.956Z,11.57
2018-12-05T19:07:30.514Z,11.57
2018-12-05T19:09:59.215Z,11.83
2018-12-05T19:12:27.384Z,11.97
2018-12-05T19:14:55.534Z,12.33
2018-12-05T19:17:23.787Z,10.13
2018-12-05T19:19:52.141Z,12.00
2018-12-05T19:22:21.002Z,14.70
2018-12-05T19:24:49.844Z,11.40
2018-12-05T19:27:18.022Z,11.43
2018-12-05T19:29:46.190Z,13.07
2018-12-05T19:32:15.340Z,12.67
2018-12-05T19:34:44.177Z,10.20
2018-12-05T19:37:12.674Z,10.80
2018-12-05T19:39:40.896Z,8.80
2018-12-05T19:42:09.119Z,10.30
2018-12-05T19:44:37.531Z,9.67
2018-12-05T19:47:05.723Z,12.67
2018-12-05T19:49:33.876Z,12.37
2018-12-05T19:52:02.378Z,12.00
2018-12-05T19:54:30.924Z,8.07
2018-12-05T19:56:59.559Z,9.23
2018-12-05T19:59:28.009Z,9.60
2018-12-05T20:01:56.524Z,11.40
2018-12-05T20:04:25.763Z,11.77
2018-12-05T20:06:54.316Z,12.70
2018-12-05T20:09:24.553Z,13.90
2018-12-05T20:11:53.567Z,14.00
2018-12-05T20:14:29.257Z,11.67
2018-12-05T20:16:58.468Z,17.13
2018-12-05T20:19:27.380Z,11.50
2018-12-05T20:21:55.935Z,11.20
2018-12-05T20:24:24.575Z,11.83
2018-12-05T20:26:53.141Z,14.30
2018-12-05T20:29:22.682Z,17.33
2018-12-05T20:31:51.376Z,16.87
2018-12-05T20:34:19.857Z,18.83
2018-12-05T20:36:48.389Z,17.20
2018-12-05T20:39:16.818Z,15.07
2018-12-05T20:41:45.329Z,17.57
2018-12-05T20:44:14.159Z,19.57
2018-12-05T20:46:42.702Z,20.30
2018-12-05T20:49:11.270Z,17.87
2018-12-05T20:51:40.427Z,20.73
2018-12-05T20:54:09.739Z,18.77
2018-12-05T20:56:38.676Z,26.53
2018-12-05T20:59:07.208Z,19.20
2018-12-05T21:01:35.740Z,17.83
2018-12-05T21:04:04.728Z,15.93
2018-12-05T21:06:34.094Z,19.40
2018-12-05T21:09:04.296Z,18.13
2018-12-05T21:11:33.469Z,21.10
2018-12-05T21:14:03.024Z,17.43
2018-12-05T21:16:31.582Z,15.57
2018-12-05T21:19:00.184Z,17.47
2018-12-05T21:21:28.832Z,16.07
2018-12-05T21:23:57.541Z,18.37
2018-12-05T21:26:26.052Z,15.43
2018-12-05T21:28:54.916Z,13.57
2018-12-05T21:31:23.447Z,17.13
2018-12-05T21:33:52.122Z,15.67
2018-12-05T21:36:20.651Z,18.63
2018-12-05T21:38:49.147Z,14.77
2018-12-05T21:41:17.660Z,14.10
2018-12-05T21:43:46.826Z,13.37
2018-12-05T21:46:15.469Z,16.07
2018-12-05T21:48:43.953Z,13.63
2018-12-05T21:51:12.681Z,15.37
2018-12-05T21:53:41.852Z,16.17
2018-12-05T21:56:11.711Z,13.87
2018-12-05T21:58:42.275Z,15.63
2018-12-05T22:01:10.776Z,13.87
2018-12-05T22:03:39.846Z,14.73
2018-12-05T22:06:08.912Z,13.60
2018-12-05T22:08:37.478Z,13.47
2018-12-05T22:11:06.576Z,18.30
2018-12-05T22:13:36.476Z,14.03
2018-12-05T22:16:06.428Z,15.70
2018-12-05T22:18:34.900Z,16.90
2018-12-05T22:21:03.818Z,18.27
2018-12-05T22:23:32.486Z,17.83
2018-12-05T22:26:01.068Z,14.43
2018-12-05T22:28:29.597Z,15.13
2018-12-05T22:30:59.227Z,17.13
2018-12-05T22:33:28.504Z,16.83
2018-12-05T22:35:57.399Z,21.47
2018-12-05T22:38:25.932Z,19.07
2018-12-05T22:40:54.558Z,17.73
2018-12-05T22:43:23.171Z,16.40
2018-12-05T22:45:51.666Z,19.20
2018-12-05T22:48:20.244Z,19.47
2018-12-05T22:50:48.915Z,17.30
2018-12-05T22:53:17.427Z,20.73
2018-12-05T22:55:45.937Z,16.57
2018-12-05T22:58:14.477Z,18.20
2018-12-05T23:00:48.437Z,17.63
2018-12-05T23:03:16.985Z,15.57
2018-12-05T23:05:45.428Z,20.73
2018-12-05T23:08:14.679Z,18.03
2018-12-05T23:10:44.670Z,20.67
2018-12-05T23:13:15.526Z,18.50
2018-12-05T23:15:44.055Z,19.83
2018-12-05T23:18:13.702Z,17.23
2018-12-05T23:20:43.135Z,21.23
2018-12-05T23:23:11.824Z,19.33
2018-12-05T23:25:41.040Z,18.80
2018-12-05T23:28:10.367Z,18.57
2018-12-05T23:30:38.920Z,15.90
2018-12-05T23:33:08.714Z,18.47
2018-12-05T23:35:38.688Z,16.13
2018-12-05T23:38:08.699Z,19.23
2018-12-05T23:40:38.440Z,17.50
2018-12-05T23:43:06.961Z,18.37
2018-12-05T23:45:35.500Z,18.40
2018-12-05T23:48:04.280Z,15.40
2018-12-05T23:50:32.828Z,16.03
2018-12-05T23:53:01.925Z,15.70
2018-12-05T23:55:30.989Z,17.17
2018-12-05T23:57:59.464Z,17.43
